sensor_id;sensor_type;location;lat;lon;timestamp;pressure;altitude;pressure_sealevel;temperature;humidity
73457;BME280;61691;53.072;6.582;2023-12-20T00:01:46;101263.50;;;6.42;89.56
73457;BME280;61691;53.072;6.582;2023-12-20T00:04:13;101271.94;;;6.47;89.84
73457;BME280;61691;53.072;6.582;2023-12-20T00:06:39;101267.06;;;6.41;89.62
73457;BME280;61691;53.072;6.582;2023-12-20T00:09:06;101253.38;;;6.36;89.60
73457;BME280;61691;53.072;6.582;2023-12-20T00:11:33;101258.53;;;6.38;89.75
73457;BME280;61691;53.072;6.582;2023-12-20T00:13:59;101252.81;;;6.31;89.62
73457;BME280;61691;53.072;6.582;2023-12-20T00:16:26;101257.34;;;6.29;89.60
73457;BME280;61691;53.072;6.582;2023-12-20T00:18:53;101253.75;;;6.30;89.59
73457;BME280;61691;53.072;6.582;2023-12-20T00:21:20;101231.03;;;6.15;89.53
73457;BME280;61691;53.072;6.582;2023-12-20T00:23:47;101248.84;;;6.24;89.67
73457;BME280;61691;53.072;6.582;2023-12-20T00:26:13;101254.88;;;6.26;89.58
73457;BME280;61691;53.072;6.582;2023-12-20T00:28:40;101204.16;;;5.96;89.61
73457;BME280;61691;53.072;6.582;2023-12-20T00:31:07;101235.25;;;6.17;89.43
73457;BME280;61691;53.072;6.582;2023-12-20T00:33:34;101244.94;;;6.17;89.52
73457;BME280;61691;53.072;6.582;2023-12-20T00:36:00;101254.25;;;6.22;89.73
73457;BME280;61691;53.072;6.582;2023-12-20T00:38:28;101253.19;;;6.25;89.35
73457;BME280;61691;53.072;6.582;2023-12-20T00:40:55;101231.88;;;6.15;89.66
73457;BME280;61691;53.072;6.582;2023-12-20T00:43:21;101251.41;;;6.26;89.78
73457;BME280;61691;53.072;6.582;2023-12-20T00:45:48;101254.69;;;6.29;89.93
73457;BME280;61691;53.072;6.582;2023-12-20T00:48:15;101223.69;;;6.20;89.72
73457;BME280;61691;53.072;6.582;2023-12-20T00:50:41;101230.44;;;6.24;89.93
73457;BME280;61691;53.072;6.582;2023-12-20T00:53:08;101237.03;;;6.31;89.80
73457;BME280;61691;53.072;6.582;2023-12-20T00:55:35;101230.66;;;6.21;89.83
73457;BME280;61691;53.072;6.582;2023-12-20T00:58:02;101235.50;;;6.27;89.84
73457;BME280;61691;53.072;6.582;2023-12-20T01:00:29;101239.31;;;6.23;89.65
73457;BME280;61691;53.072;6.582;2023-12-20T01:02:55;101237.84;;;6.32;89.80
73457;BME280;61691;53.072;6.582;2023-12-20T01:05:22;101215.59;;;6.23;89.98
73457;BME280;61691;53.072;6.582;2023-12-20T01:07:49;101230.91;;;6.31;89.97
73457;BME280;61691;53.072;6.582;2023-12-20T01:10:16;101217.09;;;6.27;89.97
73457;BME280;61691;53.072;6.582;2023-12-20T01:12:44;101216.31;;;6.25;89.53
73457;BME280;61691;53.072;6.582;2023-12-20T01:15:11;101211.06;;;6.25;90.03
73457;BME280;61691;53.072;6.582;2023-12-20T01:17:37;101213.69;;;6.25;89.93
73457;BME280;61691;53.072;6.582;2023-12-20T01:20:05;101206.66;;;6.26;89.85
73457;BME280;61691;53.072;6.582;2023-12-20T01:22:32;101203.94;;;6.27;89.74
73457;BME280;61691;53.072;6.582;2023-12-20T01:24:59;101206.56;;;6.27;90.14
73457;BME280;61691;53.072;6.582;2023-12-20T01:27:26;101203.53;;;6.33;90.15
73457;BME280;61691;53.072;6.582;2023-12-20T01:29:52;101188.53;;;6.21;89.89
73457;BME280;61691;53.072;6.582;2023-12-20T01:32:19;101200.34;;;6.28;89.54
73457;BME280;61691;53.072;6.582;2023-12-20T01:34:46;101171.84;;;6.08;89.36
73457;BME280;61691;53.072;6.582;2023-12-20T01:37:13;101194.72;;;6.20;89.56
73457;BME280;61691;53.072;6.582;2023-12-20T01:39:40;101185.53;;;6.13;89.77
73457;BME280;61691;53.072;6.582;2023-12-20T01:42:07;101190.63;;;6.16;89.71
73457;BME280;61691;53.072;6.582;2023-12-20T01:44:33;101193.97;;;6.18;89.62
73457;BME280;61691;53.072;6.582;2023-12-20T01:47:00;101200.75;;;6.22;89.98
73457;BME280;61691;53.072;6.582;2023-12-20T01:49:27;101200.53;;;6.25;89.94
73457;BME280;61691;53.072;6.582;2023-12-20T01:51:54;101169.75;;;6.13;89.91
73457;BME280;61691;53.072;6.582;2023-12-20T01:54:22;101194.91;;;6.31;90.02
73457;BME280;61691;53.072;6.582;2023-12-20T01:56:50;101193.75;;;6.35;89.94
73457;BME280;61691;53.072;6.582;2023-12-20T01:59:18;101210.09;;;6.40;89.95
73457;BME280;61691;53.072;6.582;2023-12-20T02:01:46;101218.34;;;6.48;90.12
73457;BME280;61691;53.072;6.582;2023-12-20T02:04:13;101200.97;;;6.46;90.16
73457;BME280;61691;53.072;6.582;2023-12-20T02:06:40;101186.00;;;6.46;89.78
73457;BME280;61691;53.072;6.582;2023-12-20T02:09:09;101206.78;;;6.51;89.69
73457;BME280;61691;53.072;6.582;2023-12-20T02:11:35;101198.97;;;6.49;89.90
73457;BME280;61691;53.072;6.582;2023-12-20T02:14:02;101177.94;;;6.35;89.92
73457;BME280;61691;53.072;6.582;2023-12-20T02:16:29;101185.03;;;6.47;89.83
73457;BME280;61691;53.072;6.582;2023-12-20T02:18:56;101174.50;;;6.47;89.57
73457;BME280;61691;53.072;6.582;2023-12-20T02:21:32;101171.69;;;6.50;89.65
73457;BME280;61691;53.072;6.582;2023-12-20T02:24:00;101159.56;;;6.48;89.42
73457;BME280;61691;53.072;6.582;2023-12-20T02:26:26;101159.22;;;6.40;89.88
73457;BME280;61691;53.072;6.582;2023-12-20T02:28:54;101172.72;;;6.48;89.64
73457;BME280;61691;53.072;6.582;2023-12-20T02:31:22;101161.75;;;6.41;89.37
73457;BME280;61691;53.072;6.582;2023-12-20T02:33:49;101136.75;;;6.34;89.56
73457;BME280;61691;53.072;6.582;2023-12-20T02:36:16;101154.78;;;6.40;89.58
73457;BME280;61691;53.072;6.582;2023-12-20T02:38:42;101085.25;;;6.03;89.20
73457;BME280;61691;53.072;6.582;2023-12-20T02:41:09;101151.97;;;6.43;89.54
73457;BME280;61691;53.072;6.582;2023-12-20T02:43:36;101154.59;;;6.43;89.51
73457;BME280;61691;53.072;6.582;2023-12-20T02:46:02;101063.31;;;5.90;89.23
73457;BME280;61691;53.072;6.582;2023-12-20T02:48:29;101134.66;;;6.39;89.66
73457;BME280;61691;53.072;6.582;2023-12-20T02:50:56;101128.31;;;6.29;89.59
73457;BME280;61691;53.072;6.582;2023-12-20T02:53:23;101071.25;;;6.03;89.25
73457;BME280;61691;53.072;6.582;2023-12-20T02:55:49;101138.25;;;6.38;89.22
73457;BME280;61691;53.072;6.582;2023-12-20T02:58:16;101085.94;;;6.07;89.32
73457;BME280;61691;53.072;6.582;2023-12-20T03:00:44;101145.00;;;6.42;89.52
73457;BME280;61691;53.072;6.582;2023-12-20T03:03:11;101136.34;;;6.40;89.52
73457;BME280;61691;53.072;6.582;2023-12-20T03:05:38;101109.34;;;6.24;89.38
73457;BME280;61691;53.072;6.582;2023-12-20T03:08:05;101143.13;;;6.44;89.39
73457;BME280;61691;53.072;6.582;2023-12-20T03:10:31;101133.94;;;6.37;89.63
73457;BME280;61691;53.072;6.582;2023-12-20T03:12:58;101122.47;;;6.38;89.50
73457;BME280;61691;53.072;6.582;2023-12-20T03:15:25;101101.16;;;6.29;89.60
73457;BME280;61691;53.072;6.582;2023-12-20T03:17:52;101120.78;;;6.37;89.37
73457;BME280;61691;53.072;6.582;2023-12-20T03:20:19;101069.19;;;6.08;89.59
73457;BME280;61691;53.072;6.582;2023-12-20T03:22:45;101130.72;;;6.46;89.36
73457;BME280;61691;53.072;6.582;2023-12-20T03:25:12;101115.84;;;6.45;89.54
73457;BME280;61691;53.072;6.582;2023-12-20T03:27:39;101116.78;;;6.44;89.61
73457;BME280;61691;53.072;6.582;2023-12-20T03:30:06;101124.28;;;6.50;89.54
73457;BME280;61691;53.072;6.582;2023-12-20T03:32:33;101079.16;;;6.30;89.60
73457;BME280;61691;53.072;6.582;2023-12-20T03:35:00;101095.50;;;6.47;89.38
73457;BME280;61691;53.072;6.582;2023-12-20T03:37:27;101100.59;;;6.50;89.55
73457;BME280;61691;53.072;6.582;2023-12-20T03:39:54;101077.59;;;6.40;89.33
73457;BME280;61691;53.072;6.582;2023-12-20T03:42:21;101083.84;;;6.51;89.57
73457;BME280;61691;53.072;6.582;2023-12-20T03:44:48;101095.75;;;6.57;89.33
73457;BME280;61691;53.072;6.582;2023-12-20T03:47:15;101066.84;;;6.30;89.27
73457;BME280;61691;53.072;6.582;2023-12-20T03:49:42;101105.53;;;6.55;89.29
73457;BME280;61691;53.072;6.582;2023-12-20T03:52:08;101096.16;;;6.51;89.19
73457;BME280;61691;53.072;6.582;2023-12-20T03:54:35;101078.22;;;6.43;89.05
73457;BME280;61691;53.072;6.582;2023-12-20T03:57:02;101082.56;;;6.44;89.21
73457;BME280;61691;53.072;6.582;2023-12-20T03:59:29;101096.16;;;6.51;89.50
73457;BME280;61691;53.072;6.582;2023-12-20T04:01:56;101077.19;;;6.46;89.52
73457;BME280;61691;53.072;6.582;2023-12-20T04:04:23;101060.75;;;6.42;89.39
73457;BME280;61691;53.072;6.582;2023-12-20T04:06:50;101067.94;;;6.53;89.58
73457;BME280;61691;53.072;6.582;2023-12-20T04:09:17;101086.91;;;6.71;89.37
73457;BME280;61691;53.072;6.582;2023-12-20T04:11:44;101086.19;;;6.69;89.05
73457;BME280;61691;53.072;6.582;2023-12-20T04:14:10;101084.50;;;6.68;89.17
73457;BME280;61691;53.072;6.582;2023-12-20T04:16:37;101086.47;;;6.77;89.05
73457;BME280;61691;53.072;6.582;2023-12-20T04:19:05;101055.91;;;6.61;88.93
73457;BME280;61691;53.072;6.582;2023-12-20T04:21:32;101058.25;;;6.66;88.99
73457;BME280;61691;53.072;6.582;2023-12-20T04:23:59;101066.69;;;6.71;88.96
73457;BME280;61691;53.072;6.582;2023-12-20T04:26:26;101036.75;;;6.59;88.95
73457;BME280;61691;53.072;6.582;2023-12-20T04:28:53;101032.53;;;6.57;88.92
73457;BME280;61691;53.072;6.582;2023-12-20T04:31:20;101070.47;;;6.80;89.13
73457;BME280;61691;53.072;6.582;2023-12-20T04:33:47;101054.16;;;6.75;89.09
73457;BME280;61691;53.072;6.582;2023-12-20T04:36:14;101043.81;;;6.72;88.76
73457;BME280;61691;53.072;6.582;2023-12-20T04:38:41;101052.97;;;6.79;88.83
73457;BME280;61691;53.072;6.582;2023-12-20T04:41:08;101068.91;;;6.90;89.17
73457;BME280;61691;53.072;6.582;2023-12-20T04:43:35;101067.13;;;6.90;88.80
73457;BME280;61691;53.072;6.582;2023-12-20T04:46:01;101069.44;;;6.95;88.67
73457;BME280;61691;53.072;6.582;2023-12-20T04:48:28;101068.69;;;6.93;88.54
73457;BME280;61691;53.072;6.582;2023-12-20T04:50:55;101062.47;;;6.94;88.56
73457;BME280;61691;53.072;6.582;2023-12-20T04:53:21;101055.50;;;6.93;88.82
73457;BME280;61691;53.072;6.582;2023-12-20T04:55:49;101072.59;;;7.00;88.82
73457;BME280;61691;53.072;6.582;2023-12-20T04:58:16;101055.31;;;6.96;88.61
73457;BME280;61691;53.072;6.582;2023-12-20T05:00:43;101061.84;;;7.03;88.45
73457;BME280;61691;53.072;6.582;2023-12-20T05:03:09;101059.09;;;7.05;88.18
73457;BME280;61691;53.072;6.582;2023-12-20T05:05:36;101055.09;;;6.99;88.60
73457;BME280;61691;53.072;6.582;2023-12-20T05:08:03;101045.19;;;7.03;88.12
73457;BME280;61691;53.072;6.582;2023-12-20T05:10:30;101055.38;;;7.07;88.21
73457;BME280;61691;53.072;6.582;2023-12-20T05:12:57;101051.59;;;7.11;88.27
73457;BME280;61691;53.072;6.582;2023-12-20T05:15:24;101059.50;;;7.11;88.62
73457;BME280;61691;53.072;6.582;2023-12-20T05:17:51;101044.34;;;7.02;88.37
73457;BME280;61691;53.072;6.582;2023-12-20T05:20:17;101067.00;;;7.17;88.43
73457;BME280;61691;53.072;6.582;2023-12-20T05:22:44;101064.16;;;7.20;88.29
73457;BME280;61691;53.072;6.582;2023-12-20T05:25:11;101067.09;;;7.16;87.88
73457;BME280;61691;53.072;6.582;2023-12-20T05:27:38;101034.84;;;6.99;88.03
73457;BME280;61691;53.072;6.582;2023-12-20T05:30:06;101057.38;;;7.16;88.10
73457;BME280;61691;53.072;6.582;2023-12-20T05:32:33;101063.91;;;7.23;88.10
73457;BME280;61691;53.072;6.582;2023-12-20T05:34:59;101049.78;;;7.24;87.65
73457;BME280;61691;53.072;6.582;2023-12-20T05:37:26;101052.44;;;7.24;87.71
73457;BME280;61691;53.072;6.582;2023-12-20T05:39:53;101044.00;;;7.19;87.85
73457;BME280;61691;53.072;6.582;2023-12-20T05:42:20;101044.50;;;7.24;87.98
73457;BME280;61691;53.072;6.582;2023-12-20T05:44:47;101041.78;;;7.26;87.74
73457;BME280;61691;53.072;6.582;2023-12-20T05:47:17;101034.22;;;7.21;87.90
73457;BME280;61691;53.072;6.582;2023-12-20T05:49:45;101047.25;;;7.35;87.82
73457;BME280;61691;53.072;6.582;2023-12-20T05:52:12;101028.25;;;7.30;87.54
73457;BME280;61691;53.072;6.582;2023-12-20T05:54:38;100997.50;;;7.18;87.29
73457;BME280;61691;53.072;6.582;2023-12-20T05:57:05;101024.22;;;7.37;87.57
73457;BME280;61691;53.072;6.582;2023-12-20T05:59:32;100942.44;;;6.90;87.59
73457;BME280;61691;53.072;6.582;2023-12-20T06:01:59;101017.94;;;7.27;87.47
73457;BME280;61691;53.072;6.582;2023-12-20T06:04:25;101035.41;;;7.41;87.18
73457;BME280;61691;53.072;6.582;2023-12-20T06:06:52;101010.03;;;7.27;87.41
73457;BME280;61691;53.072;6.582;2023-12-20T06:09:19;101024.66;;;7.44;87.47
73457;BME280;61691;53.072;6.582;2023-12-20T06:11:46;101034.38;;;7.44;87.50
73457;BME280;61691;53.072;6.582;2023-12-20T06:14:12;101024.13;;;7.39;87.30
73457;BME280;61691;53.072;6.582;2023-12-20T06:16:39;101008.53;;;7.36;87.29
73457;BME280;61691;53.072;6.582;2023-12-20T06:19:06;101013.28;;;7.31;87.28
73457;BME280;61691;53.072;6.582;2023-12-20T06:21:33;101022.13;;;7.43;87.34
73457;BME280;61691;53.072;6.582;2023-12-20T06:23:59;101033.28;;;7.46;87.11
73457;BME280;61691;53.072;6.582;2023-12-20T06:26:26;100998.94;;;7.35;87.10
73457;BME280;61691;53.072;6.582;2023-12-20T06:28:53;101017.06;;;7.39;87.05
73457;BME280;61691;53.072;6.582;2023-12-20T06:31:20;101026.75;;;7.52;87.03
73457;BME280;61691;53.072;6.582;2023-12-20T06:33:46;101012.19;;;7.46;86.83
73457;BME280;61691;53.072;6.582;2023-12-20T06:36:13;101027.56;;;7.52;87.12
73457;BME280;61691;53.072;6.582;2023-12-20T06:38:40;101002.91;;;7.41;86.92
73457;BME280;61691;53.072;6.582;2023-12-20T06:41:13;100992.38;;;7.41;87.08
73457;BME280;61691;53.072;6.582;2023-12-20T06:43:40;101018.59;;;7.55;86.95
73457;BME280;61691;53.072;6.582;2023-12-20T06:46:15;101006.69;;;7.49;87.01
73457;BME280;61691;53.072;6.582;2023-12-20T06:48:44;101005.31;;;7.56;87.08
73457;BME280;61691;53.072;6.582;2023-12-20T06:51:14;101006.63;;;7.62;87.03
73457;BME280;61691;53.072;6.582;2023-12-20T06:53:41;100978.00;;;7.45;86.92
73457;BME280;61691;53.072;6.582;2023-12-20T06:56:07;101001.47;;;7.60;87.31
73457;BME280;61691;53.072;6.582;2023-12-20T06:58:35;100976.72;;;7.50;86.78
73457;BME280;61691;53.072;6.582;2023-12-20T07:01:03;100928.41;;;7.26;87.16
73457;BME280;61691;53.072;6.582;2023-12-20T07:03:31;100984.59;;;7.63;86.85
73457;BME280;61691;53.072;6.582;2023-12-20T07:05:58;100992.03;;;7.69;87.30
73457;BME280;61691;53.072;6.582;2023-12-20T07:08:24;100981.22;;;7.61;87.21
73457;BME280;61691;53.072;6.582;2023-12-20T07:10:51;100978.56;;;7.61;86.75
73457;BME280;61691;53.072;6.582;2023-12-20T07:13:18;100969.22;;;7.57;87.03
73457;BME280;61691;53.072;6.582;2023-12-20T07:15:45;100995.22;;;7.74;86.95
73457;BME280;61691;53.072;6.582;2023-12-20T07:18:12;100975.25;;;7.70;86.68
73457;BME280;61691;53.072;6.582;2023-12-20T07:20:38;100959.88;;;7.64;86.47
73457;BME280;61691;53.072;6.582;2023-12-20T07:23:05;100973.38;;;7.72;86.47
73457;BME280;61691;53.072;6.582;2023-12-20T07:25:32;100976.59;;;7.75;86.37
73457;BME280;61691;53.072;6.582;2023-12-20T07:27:59;100973.69;;;7.67;86.75
73457;BME280;61691;53.072;6.582;2023-12-20T07:30:26;100954.72;;;7.62;86.56
73457;BME280;61691;53.072;6.582;2023-12-20T07:32:53;100981.44;;;7.82;86.48
73457;BME280;61691;53.072;6.582;2023-12-20T07:35:20;100958.28;;;7.74;86.55
73457;BME280;61691;53.072;6.582;2023-12-20T07:37:47;100952.47;;;7.69;86.58
73457;BME280;61691;53.072;6.582;2023-12-20T07:40:14;100966.44;;;7.82;86.35
73457;BME280;61691;53.072;6.582;2023-12-20T07:42:43;100967.91;;;7.86;86.25
73457;BME280;61691;53.072;6.582;2023-12-20T07:45:10;100963.38;;;7.88;86.40
73457;BME280;61691;53.072;6.582;2023-12-20T07:47:38;100966.00;;;7.88;86.15
73457;BME280;61691;53.072;6.582;2023-12-20T07:50:05;100965.38;;;7.85;85.82
73457;BME280;61691;53.072;6.582;2023-12-20T07:52:32;100977.22;;;7.79;86.17
73457;BME280;61691;53.072;6.582;2023-12-20T07:54:59;100953.41;;;7.68;86.10
73457;BME280;61691;53.072;6.582;2023-12-20T07:57:28;100986.28;;;7.88;85.79
73457;BME280;61691;53.072;6.582;2023-12-20T07:59:55;100988.28;;;7.84;85.91
73457;BME280;61691;53.072;6.582;2023-12-20T08:02:22;100990.72;;;7.87;85.66
73457;BME280;61691;53.072;6.582;2023-12-20T08:04:49;100970.53;;;7.86;85.73
73457;BME280;61691;53.072;6.582;2023-12-20T08:07:16;100948.53;;;7.74;85.67
73457;BME280;61691;53.072;6.582;2023-12-20T08:09:42;100993.00;;;7.92;85.69
73457;BME280;61691;53.072;6.582;2023-12-20T08:12:10;100962.84;;;7.83;85.65
73457;BME280;61691;53.072;6.582;2023-12-20T08:14:37;100968.13;;;7.83;85.36
73457;BME280;61691;53.072;6.582;2023-12-20T08:17:04;100965.47;;;7.83;85.04
73457;BME280;61691;53.072;6.582;2023-12-20T08:19:31;100983.06;;;7.95;85.51
73457;BME280;61691;53.072;6.582;2023-12-20T08:21:58;100960.94;;;7.85;85.38
73457;BME280;61691;53.072;6.582;2023-12-20T08:24:25;100979.47;;;7.96;85.52
73457;BME280;61691;53.072;6.582;2023-12-20T08:26:51;100980.81;;;8.02;85.33
73457;BME280;61691;53.072;6.582;2023-12-20T08:29:19;100994.59;;;8.05;85.30
73457;BME280;61691;53.072;6.582;2023-12-20T08:31:46;100972.53;;;8.06;85.02
73457;BME280;61691;53.072;6.582;2023-12-20T08:34:13;100973.00;;;8.00;85.06
73457;BME280;61691;53.072;6.582;2023-12-20T08:36:41;100971.03;;;7.91;84.55
73457;BME280;61691;53.072;6.582;2023-12-20T08:39:08;100973.66;;;7.91;84.37
73457;BME280;61691;53.072;6.582;2023-12-20T08:41:35;100961.88;;;7.84;83.85
73457;BME280;61691;53.072;6.582;2023-12-20T08:44:03;100982.69;;;7.89;83.49
73457;BME280;61691;53.072;6.582;2023-12-20T08:46:30;100988.66;;;7.91;83.54
73457;BME280;61691;53.072;6.582;2023-12-20T08:48:57;100972.16;;;7.76;83.25
73457;BME280;61691;53.072;6.582;2023-12-20T08:51:24;100984.19;;;7.80;83.28
73457;BME280;61691;53.072;6.582;2023-12-20T08:53:52;100994.28;;;7.86;83.42
73457;BME280;61691;53.072;6.582;2023-12-20T08:56:19;100985.19;;;7.90;83.38
73457;BME280;61691;53.072;6.582;2023-12-20T08:58:46;100970.44;;;7.88;83.46
73457;BME280;61691;53.072;6.582;2023-12-20T09:01:14;100980.31;;;7.97;83.52
73457;BME280;61691;53.072;6.582;2023-12-20T09:03:41;100985.72;;;8.06;83.60
73457;BME280;61691;53.072;6.582;2023-12-20T09:06:08;100974.09;;;8.09;83.40
73457;BME280;61691;53.072;6.582;2023-12-20T09:08:35;100970.88;;;8.16;83.32
73457;BME280;61691;53.072;6.582;2023-12-20T09:11:02;100960.81;;;8.22;83.40
73457;BME280;61691;53.072;6.582;2023-12-20T09:13:29;100974.84;;;8.22;83.65
73457;BME280;61691;53.072;6.582;2023-12-20T09:15:56;101022.78;;;8.29;83.06
73457;BME280;61691;53.072;6.582;2023-12-20T09:18:23;101073.59;;;8.32;81.59
73457;BME280;61691;53.072;6.582;2023-12-20T09:20:50;101060.31;;;7.97;81.29
73457;BME280;61691;53.072;6.582;2023-12-20T09:23:17;101053.06;;;7.64;81.11
73457;BME280;61691;53.072;6.582;2023-12-20T09:25:44;101065.34;;;7.53;81.57
73457;BME280;61691;53.072;6.582;2023-12-20T09:28:12;101040.13;;;7.12;81.68
73457;BME280;61691;53.072;6.582;2023-12-20T09:30:39;101077.53;;;7.17;81.88
73457;BME280;61691;53.072;6.582;2023-12-20T09:33:07;101055.91;;;6.99;82.44
73457;BME280;61691;53.072;6.582;2023-12-20T09:35:35;101045.50;;;6.85;82.34
73457;BME280;61691;53.072;6.582;2023-12-20T09:38:02;101066.28;;;6.90;82.42
73457;BME280;61691;53.072;6.582;2023-12-20T09:40:29;101080.41;;;6.89;82.81
73457;BME280;61691;53.072;6.582;2023-12-20T09:43:15;101069.22;;;6.73;82.84
73457;BME280;61691;53.072;6.582;2023-12-20T09:45:47;101075.56;;;6.83;82.51
73457;BME280;61691;53.072;6.582;2023-12-20T09:48:17;101093.44;;;6.78;82.03
73457;BME280;61691;53.072;6.582;2023-12-20T09:50:44;101086.38;;;6.66;81.82
73457;BME280;61691;53.072;6.582;2023-12-20T09:53:17;101075.50;;;6.57;81.72
73457;BME280;61691;53.072;6.582;2023-12-20T09:55:46;101087.53;;;6.61;81.63
73457;BME280;61691;53.072;6.582;2023-12-20T09:58:12;101083.63;;;6.54;81.31
73457;BME280;61691;53.072;6.582;2023-12-20T10:00:39;101094.91;;;6.69;81.32
73457;BME280;61691;53.072;6.582;2023-12-20T10:03:06;101073.03;;;6.69;81.99
73457;BME280;61691;53.072;6.582;2023-12-20T10:05:34;101049.59;;;6.51;81.98
73457;BME280;61691;53.072;6.582;2023-12-20T10:08:02;101089.88;;;6.79;81.74
73457;BME280;61691;53.072;6.582;2023-12-20T10:10:30;101084.06;;;6.74;81.86
73457;BME280;61691;53.072;6.582;2023-12-20T10:13:12;101103.78;;;6.81;82.09
73457;BME280;61691;53.072;6.582;2023-12-20T10:15:40;101062.88;;;6.63;81.95
73457;BME280;61691;53.072;6.582;2023-12-20T10:18:08;101095.69;;;6.84;82.28
73457;BME280;61691;53.072;6.582;2023-12-20T10:20:36;101073.31;;;6.77;82.46
73457;BME280;61691;53.072;6.582;2023-12-20T10:23:03;101026.31;;;6.45;81.90
73457;BME280;61691;53.072;6.582;2023-12-20T10:25:30;101081.22;;;6.77;82.04
73457;BME280;61691;53.072;6.582;2023-12-20T10:28:10;101080.16;;;6.79;82.13
73457;BME280;61691;53.072;6.582;2023-12-20T10:30:37;101082.28;;;6.87;81.67
73457;BME280;61691;53.072;6.582;2023-12-20T10:33:06;101074.47;;;6.85;82.09
73457;BME280;61691;53.072;6.582;2023-12-20T10:35:35;101070.47;;;6.80;82.16
73457;BME280;61691;53.072;6.582;2023-12-20T10:38:06;101087.78;;;6.84;82.13
73457;BME280;61691;53.072;6.582;2023-12-20T10:40:36;101082.91;;;6.78;82.11
73457;BME280;61691;53.072;6.582;2023-12-20T10:43:04;101067.09;;;6.78;82.26
73457;BME280;61691;53.072;6.582;2023-12-20T10:45:32;101060.13;;;6.77;82.24
73457;BME280;61691;53.072;6.582;2023-12-20T10:47:59;101054.34;;;6.72;82.14
73457;BME280;61691;53.072;6.582;2023-12-20T10:50:29;101061.44;;;6.84;82.35
73457;BME280;61691;53.072;6.582;2023-12-20T10:52:57;101049.50;;;6.78;82.71
73457;BME280;61691;53.072;6.582;2023-12-20T10:55:25;101023.16;;;6.66;82.47
73457;BME280;61691;53.072;6.582;2023-12-20T10:58:01;101059.31;;;6.89;82.72
73457;BME280;61691;53.072;6.582;2023-12-20T11:00:29;101060.78;;;6.93;82.71
73457;BME280;61691;53.072;6.582;2023-12-20T11:03:00;101053.63;;;6.95;82.74
73457;BME280;61691;53.072;6.582;2023-12-20T11:05:36;101055.31;;;6.96;82.74
73457;BME280;61691;53.072;6.582;2023-12-20T11:11:02;101038.31;;;7.00;82.82
73457;BME280;61691;53.072;6.582;2023-12-20T11:13:41;101045.38;;;7.12;82.80
73457;BME280;61691;53.072;6.582;2023-12-20T11:16:11;101046.75;;;7.18;82.48
73457;BME280;61691;53.072;6.582;2023-12-20T11:18:40;101030.53;;;7.11;82.93
73457;BME280;61691;53.072;6.582;2023-12-20T11:21:07;101049.47;;;7.29;82.50
73457;BME280;61691;53.072;6.582;2023-12-20T11:23:34;101049.75;;;7.37;82.59
73457;BME280;61691;53.072;6.582;2023-12-20T11:26:02;101029.09;;;7.31;82.87
73457;BME280;61691;53.072;6.582;2023-12-20T11:28:29;101042.78;;;7.49;82.73
73457;BME280;61691;53.072;6.582;2023-12-20T11:30:58;101041.38;;;7.56;82.42
73457;BME280;61691;53.072;6.582;2023-12-20T11:33:36;101047.16;;;7.61;82.22
73457;BME280;61691;53.072;6.582;2023-12-20T11:36:03;101040.00;;;7.63;82.24
73457;BME280;61691;53.072;6.582;2023-12-20T11:38:37;101033.03;;;7.62;82.30
73457;BME280;61691;53.072;6.582;2023-12-20T11:41:07;101034.16;;;7.70;82.13
73457;BME280;61691;53.072;6.582;2023-12-20T11:43:37;101050.66;;;7.85;82.08
73457;BME280;61691;53.072;6.582;2023-12-20T11:46:09;101026.34;;;7.69;81.78
73457;BME280;61691;53.072;6.582;2023-12-20T11:48:39;101051.91;;;7.92;81.70
73457;BME280;61691;53.072;6.582;2023-12-20T11:51:10;101039.66;;;7.91;81.76
73457;BME280;61691;53.072;6.582;2023-12-20T11:53:38;101047.13;;;7.97;81.64
73457;BME280;61691;53.072;6.582;2023-12-20T11:56:08;101033.50;;;8.03;81.69
73457;BME280;61691;53.072;6.582;2023-12-20T11:58:36;100986.47;;;7.85;81.32
73457;BME280;61691;53.072;6.582;2023-12-20T12:01:03;101002.03;;;8.00;81.01
73457;BME280;61691;53.072;6.582;2023-12-20T12:03:31;100996.53;;;8.03;81.19
73457;BME280;61691;53.072;6.582;2023-12-20T12:05:58;100995.34;;;8.07;81.03
73457;BME280;61691;53.072;6.582;2023-12-20T12:08:25;100993.53;;;8.08;81.07
73457;BME280;61691;53.072;6.582;2023-12-20T12:10:51;100994.53;;;8.18;81.19
73457;BME280;61691;53.072;6.582;2023-12-20T12:13:19;101000.53;;;8.20;80.78
73457;BME280;61691;53.072;6.582;2023-12-20T12:15:47;100984.19;;;8.15;80.97
73457;BME280;61691;53.072;6.582;2023-12-20T12:18:18;100978.06;;;8.14;81.00
73457;BME280;61691;53.072;6.582;2023-12-20T12:20:45;100979.53;;;8.19;81.06
73457;BME280;61691;53.072;6.582;2023-12-20T12:23:12;100994.66;;;8.28;81.16
73457;BME280;61691;53.072;6.582;2023-12-20T12:25:39;100993.81;;;8.27;80.85
73457;BME280;61691;53.072;6.582;2023-12-20T12:28:09;100993.00;;;8.27;80.66
73457;BME280;61691;53.072;6.582;2023-12-20T12:30:37;100993.44;;;8.21;80.84
73457;BME280;61691;53.072;6.582;2023-12-20T12:33:11;100935.19;;;7.89;80.86
73457;BME280;61691;53.072;6.582;2023-12-20T12:35:40;101000.41;;;8.22;81.08
73457;BME280;61691;53.072;6.582;2023-12-20T12:38:07;100971.31;;;7.99;80.97
73457;BME280;61691;53.072;6.582;2023-12-20T12:40:35;100938.38;;;7.81;81.08
73457;BME280;61691;53.072;6.582;2023-12-20T12:43:03;100988.88;;;8.11;81.24
73457;BME280;61691;53.072;6.582;2023-12-20T12:45:31;100966.13;;;7.98;80.92
73457;BME280;61691;53.072;6.582;2023-12-20T12:47:57;100973.63;;;8.04;80.72
73457;BME280;61691;53.072;6.582;2023-12-20T12:50:24;100980.69;;;8.03;81.30
73457;BME280;61691;53.072;6.582;2023-12-20T12:52:51;100960.25;;;7.94;81.32
73457;BME280;61691;53.072;6.582;2023-12-20T12:55:18;100965.06;;;8.00;81.47
73457;BME280;61691;53.072;6.582;2023-12-20T12:57:45;100963.63;;;7.96;81.80
73457;BME280;61691;53.072;6.582;2023-12-20T13:00:12;100974.31;;;8.06;81.66
73457;BME280;61691;53.072;6.582;2023-12-20T13:02:40;100970.97;;;8.04;81.95
73457;BME280;61691;53.072;6.582;2023-12-20T13:05:09;100963.63;;;7.96;81.81